createdAt,value
2022-11-23T00:01:29.740Z,15.97
2022-11-23T00:03:58.373Z,16.00
2022-11-23T00:06:26.365Z,17.17
2022-11-23T00:08:54.473Z,17.10
2022-11-23T00:11:22.614Z,17.83
2022-11-23T00:13:50.406Z,18.03
2022-11-23T00:16:18.971Z,16.60
2022-11-23T00:18:46.632Z,15.73
2022-11-23T00:21:15.829Z,16.60
2022-11-23T00:23:43.475Z,14.00
2022-11-23T00:26:11.223Z,17.37
2022-11-23T00:28:40.526Z,15.83
2022-11-23T00:31:10.248Z,15.23
2022-11-23T00:33:37.913Z,16.57
2022-11-23T00:36:12.391Z,17.73
2022-11-23T00:38:39.948Z,16.80
2022-11-23T00:41:08.894Z,14.87
2022-11-23T00:43:36.736Z,15.73
2022-11-23T00:46:04.068Z,15.97
2022-11-23T00:48:31.527Z,16.43
2022-11-23T00:51:00.865Z,16.43
2022-11-23T00:53:28.504Z,17.60
2022-11-23T00:55:56.776Z,14.90
2022-11-23T00:58:24.232Z,14.87
2022-11-23T01:00:51.701Z,14.80
2022-11-23T01:03:19.116Z,14.93
2022-11-23T01:05:46.454Z,15.87
2022-11-23T01:08:13.827Z,18.73
2022-11-23T01:10:41.196Z,16.87
2022-11-23T01:13:08.527Z,16.47
2022-11-23T01:15:37.627Z,15.20
2022-11-23T01:18:04.989Z,16.90
2022-11-23T01:20:32.437Z,15.40
2022-11-23T01:22:59.753Z,15.43
2022-11-23T01:25:27.212Z,14.77
2022-11-23T01:27:54.568Z,13.20
2022-11-23T01:30:23.331Z,15.87
2022-11-23T01:32:52.161Z,16.43
2022-11-23T01:35:19.533Z,17.43
2022-11-23T01:37:46.952Z,14.50
2022-11-23T01:40:15.659Z,15.73
2022-11-23T01:42:56.967Z,15.53
2022-11-23T01:45:32.459Z,14.50
2022-11-23T01:47:59.989Z,13.73
2022-11-23T01:50:27.333Z,14.37
2022-11-23T01:52:54.670Z,15.23
2022-11-23T01:55:22.145Z,15.23
2022-11-23T01:57:49.548Z,15.40
2022-11-23T02:00:17.074Z,13.97
2022-11-23T02:02:52.336Z,13.80
2022-11-23T02:05:20.459Z,13.73
2022-11-23T02:07:48.916Z,15.50
2022-11-23T02:10:17.071Z,14.00
2022-11-23T02:12:44.441Z,15.03
2022-11-23T02:15:13.089Z,13.90
2022-11-23T02:17:41.879Z,18.70
2022-11-23T02:20:10.612Z,16.23
2022-11-23T02:22:40.824Z,16.37
2022-11-23T02:25:20.501Z,16.50
2022-11-23T02:27:47.875Z,14.20
2022-11-23T02:30:15.335Z,14.73
2022-11-23T02:32:43.256Z,15.77
2022-11-23T02:35:12.576Z,14.97
2022-11-23T02:37:40.539Z,16.17
2022-11-23T02:40:26.174Z,19.53
2022-11-23T02:43:00.258Z,15.77
2022-11-23T02:45:29.314Z,16.00
2022-11-23T02:47:56.828Z,16.23
2022-11-23T02:50:24.192Z,16.90
2022-11-23T02:52:51.535Z,19.87
2022-11-23T02:55:18.997Z,14.27
2022-11-23T02:57:46.367Z,15.30
2022-11-23T03:00:14.254Z,14.90
2022-11-23T03:02:43.637Z,16.33
2022-11-23T03:05:12.427Z,14.57
2022-11-23T03:07:40.001Z,16.77
2022-11-23T03:10:07.843Z,16.50
2022-11-23T03:12:35.735Z,16.93
2022-11-23T03:15:04.223Z,15.37
2022-11-23T03:17:32.759Z,17.37
2022-11-23T03:20:00.302Z,18.53
2022-11-23T03:22:28.052Z,17.27
2022-11-23T03:24:57.644Z,16.83
2022-11-23T03:27:25.307Z,17.93
2022-11-23T03:29:53.372Z,17.00
2022-11-23T03:32:21.747Z,19.43
2022-11-23T03:34:53.282Z,16.87
2022-11-23T03:37:22.206Z,15.83
2022-11-23T03:39:49.640Z,16.13
2022-11-23T03:42:22.993Z,19.83
2022-11-23T03:44:51.207Z,16.20
2022-11-23T03:47:18.614Z,15.73
2022-11-23T03:49:46.530Z,16.37
2022-11-23T03:52:13.944Z,15.63
2022-11-23T03:54:43.530Z,20.80
2022-11-23T03:57:12.870Z,18.47
2022-11-23T03:59:40.534Z,17.50
2022-11-23T04:02:09.418Z,21.13
2022-11-23T04:04:46.444Z,17.97
2022-11-23T04:07:33.784Z,17.67
2022-11-23T04:10:04.831Z,16.17
2022-11-23T04:12:52.806Z,22.10
2022-11-23T04:15:20.295Z,20.53
2022-11-23T04:17:48.622Z,20.77
2022-11-23T04:20:16.033Z,20.37
2022-11-23T04:22:43.783Z,18.43
2022-11-23T04:25:11.463Z,18.33
2022-11-23T04:27:39.004Z,19.93
2022-11-23T04:30:06.714Z,18.97
2022-11-23T04:32:34.158Z,19.00
2022-11-23T04:35:01.627Z,19.33
2022-11-23T04:37:29.043Z,19.23
2022-11-23T04:39:56.678Z,22.23
2022-11-23T04:42:37.980Z,19.57
2022-11-23T04:52:39.947Z,17.90
2022-11-23T04:55:13.724Z,17.87
2022-11-23T04:57:50.136Z,17.00
2022-11-23T05:00:18.359Z,17.80
2022-11-23T05:02:46.891Z,20.47
2022-11-23T05:05:27.335Z,19.60
2022-11-23T05:07:55.370Z,19.80
2022-11-23T05:10:26.149Z,17.20
2022-11-23T05:12:57.754Z,17.67
2022-11-23T05:15:25.419Z,18.60
2022-11-23T05:17:58.861Z,22.60
2022-11-23T05:20:26.898Z,19.93
2022-11-23T05:22:54.408Z,21.93
2022-11-23T05:25:24.688Z,19.97
2022-11-23T05:28:11.236Z,18.70
2022-11-23T05:30:44.927Z,21.23
2022-11-23T05:33:12.866Z,19.23
2022-11-23T05:35:41.226Z,20.27
2022-11-23T05:38:09.693Z,19.37
2022-11-23T05:40:37.975Z,21.67
2022-11-23T05:43:08.224Z,21.20
2022-11-23T05:45:36.612Z,17.90
2022-11-23T05:48:04.831Z,19.10
2022-11-23T05:50:47.280Z,21.47
2022-11-23T05:53:36.278Z,17.00
2022-11-23T05:56:26.721Z,19.30
2022-11-23T05:59:08.180Z,19.90
2022-11-23T06:01:37.891Z,19.67
2022-11-23T06:04:07.716Z,19.03
2022-11-23T06:06:42.700Z,17.60
2022-11-23T06:09:12.537Z,19.83
2022-11-23T06:11:44.805Z,21.83
2022-11-23T06:14:15.851Z,19.63
2022-11-23T06:16:46.079Z,22.23
2022-11-23T06:19:36.589Z,19.53
2022-11-23T06:22:05.664Z,22.83
2022-11-23T06:24:38.037Z,21.53
2022-11-23T06:27:25.736Z,20.20
2022-11-23T06:29:53.514Z,21.23
2022-11-23T06:32:23.139Z,20.33
2022-11-23T06:34:50.687Z,22.77
2022-11-23T06:37:18.359Z,19.90
2022-11-23T06:39:51.939Z,22.13
2022-11-23T06:45:09.276Z,19.17
2022-11-23T06:47:37.565Z,19.07
2022-11-23T06:50:06.150Z,20.70
2022-11-23T06:52:34.120Z,19.80
2022-11-23T06:55:01.775Z,19.67
2022-11-23T06:57:29.443Z,21.63
2022-11-23T06:59:57.246Z,19.17
2022-11-23T07:02:31.980Z,18.97
2022-11-23T07:04:59.965Z,21.77
2022-11-23T07:07:29.530Z,20.57
2022-11-23T07:10:07.402Z,18.43
2022-11-23T07:12:47.322Z,21.93
2022-11-23T07:15:17.995Z,19.73
2022-11-23T07:17:46.389Z,21.20
2022-11-23T07:20:15.344Z,22.00
2022-11-23T07:22:43.158Z,18.57
2022-11-23T07:25:11.557Z,23.53
2022-11-23T07:27:39.260Z,24.10
2022-11-23T07:30:08.416Z,21.63
2022-11-23T07:32:35.895Z,21.47
2022-11-23T07:35:03.370Z,21.90
2022-11-23T07:37:33.423Z,21.70
2022-11-23T07:40:01.645Z,23.23
2022-11-23T07:42:35.596Z,21.40
2022-11-23T07:45:07.938Z,20.30
2022-11-23T07:47:37.687Z,21.67
2022-11-23T07:50:06.645Z,20.90
2022-11-23T07:52:35.879Z,18.93
2022-11-23T07:55:03.550Z,20.50
2022-11-23T07:57:31.064Z,23.10
2022-11-23T07:59:58.568Z,21.40
2022-11-23T08:02:26.177Z,20.83
2022-11-23T08:04:53.709Z,20.13
2022-11-23T08:07:21.199Z,20.90
2022-11-23T08:09:48.702Z,20.50
2022-11-23T08:12:16.244Z,18.50
2022-11-23T08:14:43.711Z,22.27
2022-11-23T08:17:11.163Z,24.27
2022-11-23T08:19:38.632Z,19.97
2022-11-23T08:22:06.116Z,20.80
2022-11-23T08:24:34.137Z,20.47
2022-11-23T08:27:01.830Z,21.20
2022-11-23T08:29:30.165Z,20.37
2022-11-23T08:31:57.659Z,17.23
2022-11-23T08:34:25.148Z,18.60
2022-11-23T08:36:52.588Z,21.40
2022-11-23T08:39:20.336Z,23.13
2022-11-23T08:41:47.774Z,19.80
2022-11-23T08:44:15.225Z,18.87
2022-11-23T08:46:42.713Z,16.97
2022-11-23T08:49:10.177Z,14.57
2022-11-23T08:51:37.718Z,16.10
2022-11-23T08:54:05.212Z,15.47
2022-11-23T08:56:32.695Z,16.50
2022-11-23T08:59:00.140Z,19.17
2022-11-23T09:01:27.724Z,17.33
2022-11-23T09:03:55.242Z,16.23
2022-11-23T09:06:29.151Z,16.43
2022-11-23T09:08:57.150Z,17.27
2022-11-23T09:11:26.352Z,14.77
2022-11-23T09:13:53.851Z,17.03
2022-11-23T09:16:21.474Z,16.33
2022-11-23T09:18:51.971Z,17.73
2022-11-23T09:21:19.466Z,16.03
2022-11-23T09:23:46.933Z,18.40
2022-11-23T09:26:14.509Z,20.17
2022-11-23T09:28:44.887Z,18.87
2022-11-23T09:31:12.630Z,15.23
2022-11-23T09:33:40.128Z,19.63
2022-11-23T09:36:07.767Z,18.13
2022-11-23T09:41:41.399Z,21.40
2022-11-23T09:44:34.240Z,22.17
2022-11-23T09:47:12.395Z,21.23
2022-11-23T09:49:42.765Z,21.80
2022-11-23T09:52:16.013Z,20.20
2022-11-23T09:54:44.912Z,20.17
2022-11-23T09:57:13.845Z,21.13
2022-11-23T09:59:42.909Z,18.77
2022-11-23T10:02:24.034Z,18.67
2022-11-23T10:04:53.317Z,22.67
2022-11-23T10:07:33.085Z,18.67
2022-11-23T10:10:11.777Z,16.10
2022-11-23T10:12:51.522Z,17.27
2022-11-23T10:15:42.237Z,13.53
2022-11-23T10:18:28.335Z,14.10
2022-11-23T10:20:58.612Z,16.00
2022-11-23T10:23:32.347Z,18.10
2022-11-23T10:26:00.440Z,14.73
2022-11-23T10:28:30.295Z,17.17
2022-11-23T10:31:05.036Z,17.60
2022-11-23T10:33:38.032Z,18.20
2022-11-23T10:36:05.707Z,16.60
2022-11-23T10:38:33.133Z,18.43
2022-11-23T10:41:10.921Z,18.40
2022-11-23T10:43:49.086Z,20.10
2022-11-23T10:46:31.179Z,18.93
2022-11-23T10:49:31.062Z,18.37
2022-11-23T10:51:59.701Z,18.77
2022-11-23T10:54:27.838Z,18.90
2022-11-23T10:56:55.877Z,19.27
2022-11-23T10:59:27.466Z,19.10
2022-11-23T11:02:21.448Z,19.60
2022-11-23T11:04:54.504Z,18.10
2022-11-23T11:07:30.750Z,21.97
2022-11-23T11:10:02.042Z,19.53
2022-11-23T11:12:30.315Z,18.73
2022-11-23T11:15:05.258Z,22.70
2022-11-23T11:17:39.760Z,20.83
2022-11-23T11:20:25.435Z,22.70
2022-11-23T11:22:52.925Z,21.40
2022-11-23T11:25:29.209Z,22.50
2022-11-23T11:27:57.009Z,19.90
2022-11-23T11:30:25.147Z,20.67
2022-11-23T11:32:55.453Z,21.77
2022-11-23T11:35:26.061Z,21.10
2022-11-23T11:37:55.412Z,22.00
2022-11-23T11:40:28.710Z,21.70
2022-11-23T11:43:03.360Z,21.90
2022-11-23T11:45:34.405Z,22.00
2022-11-23T11:48:16.173Z,20.67
2022-11-23T11:51:03.869Z,22.80
2022-11-23T11:53:38.830Z,21.33
2022-11-23T11:56:06.370Z,24.80
2022-11-23T11:58:40.328Z,21.60
2022-11-23T12:01:28.108Z,19.73
2022-11-23T12:04:00.840Z,21.20
2022-11-23T12:06:31.070Z,22.30
2022-11-23T12:09:04.612Z,21.80
2022-11-23T12:11:32.128Z,22.57
2022-11-23T12:14:03.487Z,20.47
2022-11-23T12:16:33.997Z,20.23
2022-11-23T12:19:04.434Z,20.23
2022-11-23T12:21:55.695Z,20.87
2022-11-23T12:24:46.516Z,17.07
2022-11-23T12:27:23.176Z,18.97
2022-11-23T12:29:50.561Z,18.87
2022-11-23T12:32:24.106Z,22.70
2022-11-23T12:35:11.929Z,21.67
2022-11-23T12:37:48.913Z,19.63
2022-11-23T12:40:22.246Z,20.00
2022-11-23T12:42:53.792Z,17.57
2022-11-23T12:45:56.933Z,19.57
2022-11-23T12:48:29.913Z,18.73
2022-11-23T12:50:57.415Z,18.37
2022-11-23T12:53:30.761Z,19.13
2022-11-23T12:56:09.763Z,18.33
2022-11-23T12:58:38.711Z,19.97
2022-11-23T13:01:08.309Z,18.43
2022-11-23T13:03:47.776Z,22.60
2022-11-23T13:06:59.644Z,18.47
2022-11-23T13:09:41.199Z,19.27
2022-11-23T13:12:11.659Z,19.50
2022-11-23T13:14:46.247Z,18.23
2022-11-23T13:17:19.820Z,18.87
2022-11-23T13:19:50.271Z,18.10
2022-11-23T13:22:20.545Z,17.23
2022-11-23T13:25:02.238Z,18.30
2022-11-23T13:27:43.027Z,18.70
2022-11-23T13:30:22.697Z,15.43
2022-11-23T13:32:53.327Z,17.97
2022-11-23T13:35:23.960Z,16.93
2022-11-23T13:37:57.702Z,17.27
2022-11-23T13:40:33.163Z,15.73
2022-11-23T13:43:02.344Z,18.90
2022-11-23T13:45:34.066Z,17.07
2022-11-23T13:48:19.365Z,17.23
2022-11-23T13:50:53.832Z,23.83
2022-11-23T13:53:21.293Z,15.23
2022-11-23T13:55:49.061Z,18.23
2022-11-23T13:58:25.441Z,14.63
2022-11-23T14:01:00.059Z,18.43
2022-11-23T14:03:49.332Z,17.87
2022-11-23T14:06:24.237Z,14.83
2022-11-23T14:09:00.305Z,18.57
2022-11-23T14:11:28.232Z,17.53
2022-11-23T14:14:02.136Z,18.27
2022-11-23T14:16:48.022Z,15.90
2022-11-23T14:19:23.159Z,15.27
2022-11-23T14:22:02.618Z,15.87
2022-11-23T14:24:57.435Z,13.97
2022-11-23T14:27:47.653Z,13.80
2022-11-23T14:30:15.559Z,16.20
2022-11-23T14:32:42.993Z,16.13
2022-11-23T14:35:23.792Z,15.67
2022-11-23T14:38:10.017Z,15.00
2022-11-23T14:40:57.887Z,16.27
2022-11-23T14:43:26.389Z,14.47
2022-11-23T14:45:54.116Z,17.90
2022-11-23T14:48:22.982Z,15.80
2022-11-23T14:51:01.506Z,16.87
2022-11-23T14:53:49.121Z,17.17
2022-11-23T14:56:36.932Z,16.87
2022-11-23T14:59:24.963Z,15.03
2022-11-23T15:01:58.291Z,19.03
2022-11-23T15:04:39.494Z,14.90
2022-11-23T15:07:13.364Z,15.47
2022-11-23T15:09:50.257Z,14.67
2022-11-23T15:12:22.450Z,15.93
2022-11-23T15:14:51.022Z,16.23
2022-11-23T15:17:19.724Z,14.37
2022-11-23T15:19:56.982Z,15.67
2022-11-23T15:22:24.793Z,16.33
2022-11-23T15:24:52.382Z,18.17
2022-11-23T15:27:30.353Z,19.27
2022-11-23T15:29:59.520Z,14.57
2022-11-23T15:32:33.285Z,17.90
2022-11-23T15:35:03.532Z,18.47
2022-11-23T15:37:31.606Z,15.90
2022-11-23T15:39:59.157Z,19.27
2022-11-23T15:42:27.494Z,17.87
2022-11-23T15:44:55.440Z,18.57
2022-11-23T15:47:27.255Z,16.10
2022-11-23T15:49:59.659Z,22.63
2022-11-23T15:52:28.961Z,18.50
2022-11-23T15:54:56.689Z,21.40
2022-11-23T15:57:26.273Z,18.20
2022-11-23T15:59:57.894Z,15.87
2022-11-23T16:02:28.738Z,17.17
2022-11-23T16:05:12.165Z,19.50
2022-11-23T16:07:53.537Z,16.47
2022-11-23T16:10:25.200Z,17.23
2022-11-23T16:12:53.780Z,15.30
2022-11-23T16:15:32.605Z,18.67
2022-11-23T16:18:03.272Z,18.83
2022-11-23T16:20:30.902Z,17.37
2022-11-23T16:23:00.208Z,18.90
2022-11-23T16:25:32.303Z,19.57
2022-11-23T16:28:04.436Z,17.27
2022-11-23T16:30:39.164Z,19.23
2022-11-23T16:33:07.064Z,16.73
2022-11-23T16:35:34.528Z,18.10
2022-11-23T16:38:02.081Z,16.57
2022-11-23T16:40:29.523Z,18.10
2022-11-23T16:42:59.282Z,18.17
2022-11-23T16:45:27.577Z,17.97
2022-11-23T16:47:56.268Z,16.97
2022-11-23T16:50:24.816Z,17.63
2022-11-23T16:52:52.338Z,17.03
2022-11-23T16:55:19.836Z,17.13
2022-11-23T16:57:47.745Z,20.07
2022-11-23T17:00:17.521Z,16.73
2022-11-23T17:02:45.208Z,17.73
2022-11-23T17:05:19.697Z,17.47
2022-11-23T17:07:47.728Z,16.53
2022-11-23T17:10:15.449Z,17.00
2022-11-23T17:12:48.380Z,17.43
2022-11-23T17:15:16.175Z,17.13
2022-11-23T17:17:43.650Z,19.53
2022-11-23T17:20:13.666Z,20.00
2022-11-23T17:22:41.130Z,17.60
2022-11-23T17:25:14.444Z,17.87
2022-11-23T17:27:43.793Z,14.93
2022-11-23T17:30:15.764Z,16.03
2022-11-23T17:32:43.435Z,16.53
2022-11-23T17:35:11.002Z,15.83
2022-11-23T17:37:38.472Z,19.40
2022-11-23T17:40:06.365Z,16.83
2022-11-23T17:42:34.426Z,17.17
2022-11-23T17:45:02.162Z,17.57
2022-11-23T17:47:30.492Z,17.47
2022-11-23T17:49:58.325Z,18.87
2022-11-23T17:52:26.064Z,16.37
2022-11-23T17:54:53.770Z,17.10
2022-11-23T17:57:24.893Z,16.93
2022-11-23T17:59:52.514Z,16.63
2022-11-23T18:02:21.169Z,17.00
2022-11-23T18:04:49.104Z,15.93
2022-11-23T18:07:17.411Z,19.27
2022-11-23T18:09:44.942Z,16.77
2022-11-23T18:12:12.459Z,16.43
2022-11-23T18:14:39.923Z,15.87
2022-11-23T18:17:07.484Z,16.80
2022-11-23T18:19:35.112Z,16.97
2022-11-23T18:22:02.846Z,19.13
2022-11-23T18:24:30.418Z,16.43
2022-11-23T18:26:57.872Z,17.23
2022-11-23T18:29:25.334Z,14.93
2022-11-23T18:31:53.061Z,16.17
2022-11-23T18:34:20.512Z,16.33
2022-11-23T18:36:48.103Z,16.07
2022-11-23T18:39:15.637Z,15.67
2022-11-23T18:41:43.105Z,15.63
2022-11-23T18:44:10.598Z,16.23
2022-11-23T18:46:38.438Z,14.93
2022-11-23T18:49:06.062Z,17.17
2022-11-23T18:51:34.185Z,18.77
2022-11-23T18:54:01.663Z,16.73
2022-11-23T18:56:29.115Z,19.77
2022-11-23T18:58:56.577Z,20.53
2022-11-23T19:01:24.988Z,23.90
2022-11-23T19:03:53.418Z,19.67
2022-11-23T19:06:21.720Z,20.03
2022-11-23T19:08:57.437Z,18.97
2022-11-23T19:11:25.903Z,19.77
2022-11-23T19:13:54.729Z,19.17
2022-11-23T19:16:23.864Z,20.10
2022-11-23T19:18:55.262Z,22.77
2022-11-23T19:21:24.630Z,18.43
2022-11-23T19:23:53.415Z,22.03
2022-11-23T19:26:21.166Z,21.23
2022-11-23T19:28:48.746Z,23.57
2022-11-23T19:31:17.889Z,20.33
2022-11-23T19:33:46.069Z,21.33
2022-11-23T19:36:14.911Z,21.30
2022-11-23T19:38:42.465Z,21.97
2022-11-23T19:41:10.966Z,20.03
2022-11-23T19:43:38.506Z,19.80
2022-11-23T19:46:06.824Z,19.90
2022-11-23T19:48:35.253Z,19.87
2022-11-23T19:51:02.801Z,19.67
2022-11-23T19:53:31.130Z,23.33
2022-11-23T19:56:14.660Z,20.43
2022-11-23T19:58:42.611Z,20.63
2022-11-23T20:01:15.024Z,24.07
2022-11-23T20:03:43.592Z,23.10
2022-11-23T20:06:15.852Z,21.37
2022-11-23T20:08:43.891Z,19.50
2022-11-23T20:11:13.297Z,20.30
2022-11-23T20:13:41.111Z,21.03
2022-11-23T20:16:10.035Z,20.43
2022-11-23T20:18:37.657Z,19.90
2022-11-23T20:21:05.556Z,20.90
2022-11-23T20:23:33.016Z,18.53
2022-11-23T20:26:00.511Z,22.20
2022-11-23T20:28:28.281Z,21.27
2022-11-23T20:30:55.773Z,20.17
2022-11-23T20:33:23.193Z,20.60
2022-11-23T20:35:50.711Z,17.30
2022-11-23T20:38:18.505Z,21.70
2022-11-23T20:40:46.001Z,20.97
2022-11-23T20:43:13.546Z,20.87
2022-11-23T20:45:41.003Z,20.27
2022-11-23T20:48:08.490Z,21.67
2022-11-23T20:50:35.988Z,20.73
2022-11-23T20:53:04.158Z,22.87
2022-11-23T20:55:32.063Z,19.73
2022-11-23T20:57:59.631Z,19.23
2022-11-23T21:00:27.140Z,22.60
2022-11-23T21:02:58.620Z,21.40
2022-11-23T21:05:26.077Z,21.17
2022-11-23T21:07:53.572Z,23.20
2022-11-23T21:10:39.849Z,26.07
2022-11-23T21:13:37.197Z,20.30
2022-11-23T21:16:16.325Z,18.80
2022-11-23T21:18:43.929Z,19.90
2022-11-23T21:21:12.127Z,21.00
2022-11-23T21:23:39.601Z,20.13
2022-11-23T21:26:08.407Z,19.33
2022-11-23T21:28:37.012Z,17.67
2022-11-23T21:31:08.399Z,19.30
2022-11-23T21:33:38.694Z,19.80
2022-11-23T21:36:06.372Z,20.33
2022-11-23T21:38:35.476Z,20.63
2022-11-23T21:41:03.374Z,19.10
2022-11-23T21:43:31.714Z,21.20
2022-11-23T21:46:21.552Z,20.47
2022-11-23T21:48:49.144Z,19.93
2022-11-23T21:51:17.007Z,20.37
2022-11-23T21:53:44.861Z,22.80
2022-11-23T21:56:16.340Z,24.43
2022-11-23T21:58:44.229Z,18.37
2022-11-23T22:01:16.088Z,23.33
2022-11-23T22:03:44.913Z,22.63
2022-11-23T22:06:20.007Z,23.23
2022-11-23T22:08:49.335Z,22.27
2022-11-23T22:11:18.140Z,21.83
2022-11-23T22:13:45.995Z,22.43
2022-11-23T22:16:14.402Z,23.57
2022-11-23T22:18:41.941Z,23.60
2022-11-23T22:21:09.587Z,21.33
2022-11-23T22:23:37.549Z,19.23
2022-11-23T22:26:05.913Z,23.10
2022-11-23T22:28:34.165Z,22.10
2022-11-23T22:31:03.027Z,22.50
2022-11-23T22:33:30.923Z,20.27
2022-11-23T22:36:02.364Z,22.40
2022-11-23T22:38:32.307Z,20.63
2022-11-23T22:41:00.499Z,18.67
2022-11-23T22:43:28.006Z,20.67
2022-11-23T22:45:58.606Z,21.10
2022-11-23T22:48:29.956Z,21.93
2022-11-23T22:50:58.699Z,23.57
2022-11-23T22:53:26.380Z,25.13
2022-11-23T22:55:53.878Z,21.07
2022-11-23T22:58:21.345Z,21.93
2022-11-23T23:00:48.797Z,22.37
2022-11-23T23:03:16.485Z,19.90
2022-11-23T23:05:44.040Z,20.70
2022-11-23T23:08:12.767Z,21.83
2022-11-23T23:10:40.295Z,21.47
2022-11-23T23:13:07.756Z,20.07
2022-11-23T23:15:35.218Z,20.33
2022-11-23T23:18:02.628Z,21.17
2022-11-23T23:20:30.129Z,20.43
2022-11-23T23:22:57.582Z,19.77
2022-11-23T23:25:25.032Z,17.83
2022-11-23T23:27:52.512Z,20.53
2022-11-23T23:30:20.531Z,21.07
2022-11-23T23:32:48.294Z,20.60
2022-11-23T23:35:15.795Z,19.77
2022-11-23T23:37:43.305Z,18.13
2022-11-23T23:40:12.124Z,17.30
2022-11-23T23:42:39.564Z,18.20
2022-11-23T23:45:07.249Z,17.13
2022-11-23T23:47:34.687Z,17.23
2022-11-23T23:50:02.072Z,17.77
2022-11-23T23:52:29.528Z,15.80
2022-11-23T23:54:57.373Z,16.70
2022-11-23T23:57:24.849Z,17.17
2022-11-23T23:59:52.263Z,15.20
